createdAt,value
2019-01-28T00:02:04.666Z,97158.48
2019-01-28T00:04:35.095Z,97158.56
2019-01-28T00:07:05.640Z,97156.77
2019-01-28T00:09:36.109Z,97157.20
2019-01-28T00:12:06.904Z,97159.00
2019-01-28T00:14:37.323Z,97162.25
2019-01-28T00:17:08.665Z,97161.23
2019-01-28T00:19:39.087Z,97168.73
2019-01-28T00:22:09.507Z,97163.97
2019-01-28T00:24:39.978Z,97171.92
2019-01-28T00:27:10.446Z,97168.07
2019-01-28T00:29:40.866Z,97160.34
2019-01-28T00:32:11.337Z,97155.44
2019-01-28T00:34:42.135Z,97155.52
2019-01-28T00:37:14.131Z,97156.18
2019-01-28T00:39:44.604Z,97153.94
2019-01-28T00:42:15.437Z,97153.65
2019-01-28T00:44:45.866Z,97152.55
2019-01-28T00:47:16.320Z,97156.98
2019-01-28T00:49:46.742Z,97158.03
2019-01-28T00:52:18.155Z,97161.99
2019-01-28T00:54:48.632Z,97158.65
2019-01-28T00:57:19.062Z,97147.44
2019-01-28T00:59:49.489Z,97163.45
2019-01-28T01:02:19.962Z,97161.43
2019-01-28T01:04:50.503Z,97169.97
2019-01-28T01:07:22.538Z,97170.95
2019-01-28T01:09:53.007Z,97173.59
2019-01-28T01:12:23.765Z,97182.13
2019-01-28T01:14:54.541Z,97189.61
2019-01-28T01:17:25.022Z,97183.78
2019-01-28T01:19:55.508Z,97190.34
2019-01-28T01:22:26.306Z,97190.20
2019-01-28T01:24:56.797Z,97182.36
2019-01-28T01:27:27.228Z,97176.86
2019-01-28T01:29:57.646Z,97178.08
2019-01-28T01:32:29.416Z,97188.31
2019-01-28T01:34:59.884Z,97193.18
2019-01-28T01:37:30.258Z,97191.28
2019-01-28T01:40:00.731Z,97201.00
2019-01-28T01:42:31.157Z,97185.02
2019-01-28T01:45:01.588Z,97180.72
2019-01-28T01:47:32.054Z,97185.95
2019-01-28T01:50:02.487Z,97185.08
2019-01-28T01:52:32.902Z,97192.22
2019-01-28T01:55:03.375Z,97191.41
2019-01-28T01:57:34.248Z,97192.59
2019-01-28T02:00:07.330Z,97190.03
2019-01-28T02:02:37.794Z,97190.39
2019-01-28T02:05:08.728Z,97185.27
2019-01-28T02:07:39.434Z,97185.74
2019-01-28T02:10:11.874Z,97185.11
2019-01-28T02:12:42.402Z,97181.93
2019-01-28T02:15:16.052Z,97183.31
2019-01-28T02:17:47.115Z,97182.32
2019-01-28T02:20:17.998Z,97175.77
2019-01-28T02:22:48.820Z,97179.50
2019-01-28T02:25:19.391Z,97181.05
2019-01-28T02:27:50.084Z,97190.13
2019-01-28T02:30:20.509Z,97181.70
2019-01-28T02:32:50.990Z,97186.69
2019-01-28T02:35:21.415Z,97187.12
2019-01-28T02:37:51.842Z,97185.66
2019-01-28T02:40:22.324Z,97177.41
2019-01-28T02:42:52.765Z,97174.11
2019-01-28T02:45:23.190Z,97177.93
2019-01-28T02:47:53.670Z,97178.77
2019-01-28T02:50:24.443Z,97179.25
2019-01-28T02:52:54.866Z,97173.13
2019-01-28T02:55:25.338Z,97168.50
2019-01-28T02:57:55.921Z,97165.72
2019-01-28T03:00:26.716Z,97171.15
2019-01-28T03:02:57.195Z,97172.36
2019-01-28T03:05:28.000Z,97173.78
2019-01-28T03:07:58.715Z,97171.70
2019-01-28T03:10:29.487Z,97171.89
2019-01-28T03:13:00.278Z,97177.48
2019-01-28T03:15:30.698Z,97178.19
2019-01-28T03:18:01.176Z,97173.06
2019-01-28T03:20:31.597Z,97172.87
2019-01-28T03:23:02.029Z,97169.77
2019-01-28T03:25:32.779Z,97167.41
2019-01-28T03:28:03.213Z,97165.20
2019-01-28T03:30:34.009Z,97170.45
2019-01-28T03:33:04.529Z,97168.45
2019-01-28T03:35:34.942Z,97164.70
2019-01-28T03:38:05.385Z,97169.88
2019-01-28T03:40:35.877Z,97161.52
2019-01-28T03:43:06.320Z,97158.87
2019-01-28T03:45:37.203Z,97152.61
2019-01-28T03:48:07.683Z,97153.05
2019-01-28T03:50:38.108Z,97151.63
2019-01-28T03:53:08.616Z,97150.63
2019-01-28T03:55:39.095Z,97149.31
2019-01-28T03:58:10.235Z,97145.31
2019-01-28T04:00:40.672Z,97142.20
2019-01-28T04:03:11.147Z,97142.57
2019-01-28T04:05:41.677Z,97148.19
2019-01-28T04:08:13.116Z,97150.34
2019-01-28T04:10:43.963Z,97143.38
2019-01-28T04:13:14.438Z,97136.39
2019-01-28T04:15:44.821Z,97132.80
2019-01-28T04:18:15.538Z,97134.08
2019-01-28T04:20:45.970Z,97140.67
2019-01-28T04:23:16.390Z,97130.64
2019-01-28T04:25:46.945Z,97133.80
2019-01-28T04:28:17.372Z,97128.70
2019-01-28T04:30:47.797Z,97117.97
2019-01-28T04:33:18.275Z,97119.43
2019-01-28T04:35:48.697Z,97116.47
2019-01-28T04:38:19.121Z,97110.63
2019-01-28T04:40:49.594Z,97112.66
2019-01-28T04:43:20.018Z,97102.94
2019-01-28T04:45:50.446Z,97102.47
2019-01-28T04:48:20.916Z,97109.31
2019-01-28T04:50:51.612Z,97100.59
2019-01-28T04:53:22.039Z,97098.84
2019-01-28T04:55:52.505Z,97095.59
2019-01-28T04:58:23.361Z,97092.55
2019-01-28T05:00:54.240Z,97087.67
2019-01-28T05:03:24.715Z,97090.97
2019-01-28T05:05:55.131Z,97083.45
2019-01-28T05:08:25.555Z,97089.61
2019-01-28T05:10:56.034Z,97084.95
2019-01-28T05:13:26.459Z,97079.67
2019-01-28T05:15:56.919Z,97079.20
2019-01-28T05:18:27.618Z,97080.00
2019-01-28T05:20:58.033Z,97080.81
2019-01-28T05:23:28.496Z,97075.24
2019-01-28T05:25:59.291Z,97079.49
2019-01-28T05:28:29.771Z,97076.27
2019-01-28T05:31:00.178Z,97073.13
2019-01-28T05:33:30.599Z,97068.89
2019-01-28T05:36:01.050Z,97066.02
2019-01-28T05:38:31.470Z,97064.84
2019-01-28T05:41:02.371Z,97062.39
2019-01-28T05:43:32.794Z,97066.05
2019-01-28T05:46:03.228Z,97065.54
2019-01-28T05:48:33.842Z,97063.75
2019-01-28T05:51:04.363Z,97064.41
2019-01-28T05:53:35.103Z,97064.13
2019-01-28T05:56:05.732Z,97064.27
2019-01-28T05:58:36.516Z,97068.41
2019-01-28T06:01:07.331Z,97070.12
2019-01-28T06:03:37.770Z,97066.86
2019-01-28T06:06:08.416Z,97070.39
2019-01-28T06:08:38.835Z,97080.86
2019-01-28T06:11:09.256Z,97071.33
2019-01-28T06:13:39.705Z,97071.48
2019-01-28T06:16:10.392Z,97073.13
2019-01-28T06:18:40.846Z,97073.35
2019-01-28T06:21:11.272Z,97071.89
2019-01-28T06:23:41.691Z,97070.06
2019-01-28T06:26:12.143Z,97067.14
2019-01-28T06:28:43.085Z,97062.30
2019-01-28T06:31:14.483Z,97067.53
2019-01-28T06:33:44.883Z,97069.73
2019-01-28T06:36:15.370Z,97072.41
2019-01-28T06:38:45.852Z,97072.41
2019-01-28T06:41:16.250Z,97068.97
2019-01-28T06:43:46.720Z,97072.12
2019-01-28T06:46:17.147Z,97067.23
2019-01-28T06:48:47.573Z,97070.06
2019-01-28T06:51:18.398Z,97073.03
2019-01-28T06:53:49.248Z,97063.75
2019-01-28T06:56:19.672Z,97066.44
2019-01-28T06:58:50.447Z,97071.52
2019-01-28T07:01:21.190Z,97076.90
2019-01-28T07:03:51.973Z,97073.98
2019-01-28T07:06:22.846Z,97079.48
2019-01-28T07:08:53.544Z,97087.30
2019-01-28T07:11:23.971Z,97083.39
2019-01-28T07:13:54.440Z,97083.31
2019-01-28T07:16:24.867Z,97093.23
2019-01-28T07:18:55.288Z,97088.58
2019-01-28T07:21:25.751Z,97084.76
2019-01-28T07:23:56.271Z,97081.04
2019-01-28T07:26:26.735Z,97084.48
2019-01-28T07:28:57.535Z,97083.59
2019-01-28T07:31:27.955Z,97077.79
2019-01-28T07:33:58.518Z,97086.03
2019-01-28T07:36:29.030Z,97090.94
2019-01-28T07:38:59.499Z,97094.29
2019-01-28T07:41:29.919Z,97093.81
2019-01-28T07:44:01.134Z,97099.66
2019-01-28T07:46:31.587Z,97101.31
2019-01-28T07:49:02.012Z,97102.39
2019-01-28T07:51:32.552Z,97107.34
2019-01-28T07:54:03.327Z,97106.34
2019-01-28T07:56:33.752Z,97112.42
2019-01-28T07:59:04.225Z,97111.53
2019-01-28T08:01:34.653Z,97110.77
2019-01-28T08:04:05.334Z,97109.22
2019-01-28T08:06:35.787Z,97105.41
2019-01-28T08:09:08.962Z,97105.16
2019-01-28T08:11:39.411Z,97098.42
2019-01-28T08:14:09.830Z,97106.39
2019-01-28T08:16:40.292Z,97101.88
2019-01-28T08:19:10.711Z,97101.11
2019-01-28T08:21:41.575Z,97102.34
2019-01-28T08:24:12.026Z,97108.22
2019-01-28T08:26:43.110Z,97111.89
2019-01-28T08:29:13.960Z,97111.75
2019-01-28T08:31:44.379Z,97115.23
2019-01-28T08:34:14.811Z,97104.25
2019-01-28T08:36:45.262Z,97103.63
2019-01-28T08:39:15.684Z,97093.06
2019-01-28T08:41:46.154Z,97097.73
2019-01-28T08:44:16.573Z,97092.23
2019-01-28T08:46:46.993Z,97091.50
2019-01-28T08:49:17.622Z,97096.05
2019-01-28T08:51:48.039Z,97100.11
2019-01-28T08:54:18.515Z,97099.41
2019-01-28T08:56:48.938Z,97089.69
2019-01-28T08:59:19.355Z,97097.47
2019-01-28T09:01:49.812Z,97098.61
2019-01-28T09:04:20.236Z,97106.52
2019-01-28T09:06:50.727Z,97100.47
2019-01-28T09:09:21.302Z,97095.79
2019-01-28T09:11:51.928Z,97104.84
2019-01-28T09:14:22.373Z,97113.66
2019-01-28T09:16:52.797Z,97115.47
2019-01-28T09:19:23.268Z,97117.25
2019-01-28T09:21:53.694Z,97112.63
2019-01-28T09:24:24.531Z,97111.94
2019-01-28T09:26:54.985Z,97126.33
2019-01-28T09:29:25.403Z,97115.75
2019-01-28T09:31:55.872Z,97119.66
2019-01-28T09:34:26.447Z,97123.58
2019-01-28T09:36:57.037Z,97123.39
2019-01-28T09:39:27.484Z,97124.91
2019-01-28T09:41:57.905Z,97125.38
2019-01-28T09:44:28.403Z,97126.52
2019-01-28T09:46:58.824Z,97126.77
2019-01-28T09:49:29.248Z,97131.38
2019-01-28T09:51:59.699Z,97134.84
2019-01-28T09:54:30.223Z,97137.16
2019-01-28T09:57:01.075Z,97136.78
2019-01-28T09:59:31.500Z,97152.25
2019-01-28T10:02:01.926Z,97139.22
2019-01-28T10:04:32.365Z,97145.68
2019-01-28T10:07:03.162Z,97147.33
2019-01-28T10:09:33.643Z,97148.38
2019-01-28T10:12:04.387Z,97147.68
2019-01-28T10:14:35.176Z,97151.19
2019-01-28T10:17:05.911Z,97150.55
2019-01-28T10:19:36.711Z,97152.56
2019-01-28T10:22:07.523Z,97153.09
2019-01-28T10:24:37.948Z,97138.16
2019-01-28T10:27:08.416Z,97152.95
2019-01-28T10:29:38.819Z,97152.52
2019-01-28T10:32:09.691Z,97137.48
2019-01-28T10:34:40.111Z,97150.02
2019-01-28T10:37:10.635Z,97137.12
2019-01-28T10:39:41.080Z,97135.30
2019-01-28T10:42:12.180Z,97139.45
2019-01-28T10:44:43.016Z,97129.70
2019-01-28T10:47:13.471Z,97138.13
2019-01-28T10:49:43.941Z,97138.61
2019-01-28T10:52:14.367Z,97137.03
2019-01-28T10:54:45.138Z,97135.33
2019-01-28T10:57:15.580Z,97143.98
2019-01-28T10:59:45.994Z,97146.50
2019-01-28T11:02:16.459Z,97146.77
2019-01-28T11:04:46.882Z,97147.06
2019-01-28T11:07:17.331Z,97153.88
2019-01-28T11:09:47.791Z,97152.89
2019-01-28T11:12:18.212Z,97158.00
2019-01-28T11:14:48.707Z,97163.00
2019-01-28T11:17:19.106Z,97163.52
2019-01-28T11:19:50.588Z,97163.33
2019-01-28T11:22:21.015Z,97169.09
2019-01-28T11:24:51.412Z,97162.81
2019-01-28T11:27:21.883Z,97171.54
2019-01-28T11:29:52.317Z,97166.09
2019-01-28T11:32:23.274Z,97162.38
2019-01-28T11:34:53.803Z,97163.75
2019-01-28T11:37:24.184Z,97164.38
2019-01-28T11:39:54.730Z,97166.86
2019-01-28T11:42:25.162Z,97169.25
2019-01-28T11:44:55.565Z,97175.21
2019-01-28T11:47:26.770Z,97178.72
2019-01-28T11:49:57.701Z,97179.12
2019-01-28T11:52:28.193Z,97174.70
2019-01-28T11:54:58.612Z,97179.91
2019-01-28T11:57:29.082Z,97177.86
2019-01-28T11:59:59.623Z,97178.20
2019-01-28T12:02:34.508Z,97188.16
2019-01-28T12:05:02.741Z,97183.87
2019-01-28T12:07:33.186Z,97189.10
2019-01-28T12:10:05.604Z,97197.97
2019-01-28T12:12:36.023Z,97195.46
2019-01-28T12:15:08.007Z,97198.05
2019-01-28T12:17:38.429Z,97196.49
2019-01-28T12:20:09.746Z,97203.53
2019-01-28T12:22:40.598Z,97205.83
2019-01-28T12:25:12.328Z,97208.92
2019-01-28T12:27:43.387Z,97216.94
2019-01-28T12:30:23.290Z,97213.97
2019-01-28T12:32:53.766Z,97213.67
2019-01-28T12:35:24.297Z,97216.80
2019-01-28T12:37:54.727Z,97219.63
2019-01-28T12:40:26.271Z,97223.95
2019-01-28T12:42:56.802Z,97218.80
2019-01-28T12:45:27.687Z,97225.66
2019-01-28T12:47:58.122Z,97222.27
2019-01-28T12:50:28.748Z,97229.96
2019-01-28T12:52:59.210Z,97226.13
2019-01-28T12:55:30.680Z,97237.59
2019-01-28T12:58:01.759Z,97233.72
2019-01-28T13:00:40.099Z,97233.52
2019-01-28T13:03:11.716Z,97239.16
2019-01-28T13:05:42.188Z,97244.51
2019-01-28T13:08:12.638Z,97251.13
2019-01-28T13:10:43.107Z,97256.75
2019-01-28T13:13:13.625Z,97257.08
2019-01-28T13:15:44.092Z,97263.61
2019-01-28T13:18:14.526Z,97264.03
2019-01-28T13:20:44.944Z,97270.75
2019-01-28T13:23:15.391Z,97271.53
2019-01-28T13:25:45.819Z,97274.95
2019-01-28T13:28:16.306Z,97279.48
2019-01-28T13:30:46.736Z,97283.40
2019-01-28T13:33:18.062Z,97289.81
2019-01-28T13:35:48.522Z,97295.45
2019-01-28T13:38:18.938Z,97298.28
2019-01-28T13:40:49.858Z,97302.61
2019-01-28T13:43:20.284Z,97311.25
2019-01-28T13:45:50.705Z,97313.38
2019-01-28T13:48:21.239Z,97310.11
2019-01-28T13:50:51.669Z,97315.25
2019-01-28T13:53:22.242Z,97320.50
2019-01-28T13:55:52.676Z,97325.83
2019-01-28T13:58:23.099Z,97331.62
2019-01-28T14:00:53.543Z,97336.58
2019-01-28T14:03:23.981Z,97340.69
2019-01-28T14:05:54.579Z,97346.48
2019-01-28T14:08:25.002Z,97344.70
2019-01-28T14:10:55.425Z,97350.45
2019-01-28T14:13:25.875Z,97353.61
2019-01-28T14:15:56.630Z,97355.22
2019-01-28T14:18:27.107Z,97359.48
2019-01-28T14:21:00.874Z,97361.61
2019-01-28T14:23:31.471Z,97369.23
2019-01-28T14:26:02.362Z,97376.65
2019-01-28T14:28:32.784Z,97376.53
2019-01-28T14:31:03.286Z,97385.38
2019-01-28T14:33:34.081Z,97391.54
2019-01-28T14:36:05.073Z,97398.44
2019-01-28T14:38:35.507Z,97404.56
2019-01-28T14:41:05.934Z,97402.11
2019-01-28T14:43:36.390Z,97400.60
2019-01-28T14:46:06.819Z,97409.81
2019-01-28T14:48:37.290Z,97413.18
2019-01-28T14:51:07.714Z,97417.86
2019-01-28T14:53:38.139Z,97417.72
2019-01-28T14:56:08.669Z,97422.52
2019-01-28T14:58:39.464Z,97436.22
2019-01-28T15:01:10.280Z,97443.36
2019-01-28T15:03:41.034Z,97445.34
2019-01-28T15:06:11.572Z,97448.48
2019-01-28T15:08:42.363Z,97456.89
2019-01-28T15:11:13.258Z,97457.42
2019-01-28T15:13:43.720Z,97465.34
2019-01-28T15:16:14.935Z,97470.84
2019-01-28T15:18:45.395Z,97471.84
2019-01-28T15:21:15.807Z,97483.41
2019-01-28T15:23:46.279Z,97482.77
2019-01-28T15:26:17.159Z,97485.06
2019-01-28T15:28:47.682Z,97487.41
2019-01-28T15:31:18.126Z,97498.28
2019-01-28T15:33:48.546Z,97499.28
2019-01-28T15:36:19.012Z,97505.56
2019-01-28T15:38:49.465Z,97507.56
2019-01-28T15:41:19.892Z,97511.52
2019-01-28T15:43:50.353Z,97519.77
2019-01-28T15:46:20.781Z,97517.80
2019-01-28T15:48:51.262Z,97526.20
2019-01-28T15:51:21.958Z,97528.20
2019-01-28T15:53:52.757Z,97538.07
2019-01-28T15:56:23.217Z,97543.69
2019-01-28T15:58:53.711Z,97548.63
2019-01-28T16:01:24.216Z,97548.95
2019-01-28T16:03:55.037Z,97553.39
2019-01-28T16:06:25.499Z,97555.37
2019-01-28T16:08:55.970Z,97563.94
2019-01-28T16:11:26.410Z,97563.11
2019-01-28T16:13:56.906Z,97567.92
2019-01-28T16:16:27.445Z,97564.77
2019-01-28T16:18:57.880Z,97570.85
2019-01-28T16:21:28.718Z,97581.58
2019-01-28T16:23:59.156Z,97585.06
2019-01-28T16:26:29.669Z,97589.48
2019-01-28T16:29:00.117Z,97593.13
2019-01-28T16:31:30.558Z,97594.61
2019-01-28T16:34:01.044Z,97595.08
2019-01-28T16:36:31.573Z,97600.52
2019-01-28T16:39:02.049Z,97602.69
2019-01-28T16:41:32.501Z,97605.16
2019-01-28T16:44:04.704Z,97613.56
2019-01-28T16:46:35.190Z,97614.05
2019-01-28T16:49:06.002Z,97613.72
2019-01-28T16:51:36.437Z,97620.95
2019-01-28T16:54:06.930Z,97624.90
2019-01-28T16:56:37.366Z,97621.63
2019-01-28T16:59:07.810Z,97632.19
2019-01-28T17:01:38.305Z,97629.72
2019-01-28T17:04:09.117Z,97633.98
2019-01-28T17:06:39.594Z,97636.80
2019-01-28T17:09:11.040Z,97643.06
2019-01-28T17:11:41.492Z,97648.84
2019-01-28T17:14:11.918Z,97651.47
2019-01-28T17:16:42.672Z,97653.63
2019-01-28T17:19:13.111Z,97658.41
2019-01-28T17:21:43.656Z,97667.80
2019-01-28T17:24:14.143Z,97664.19
2019-01-28T17:26:45.682Z,97672.56
2019-01-28T17:29:16.622Z,97674.06
2019-01-28T17:31:47.108Z,97679.84
2019-01-28T17:34:17.934Z,97688.56
2019-01-28T17:36:48.772Z,97697.97
2019-01-28T17:39:20.329Z,97699.95
2019-01-28T17:41:50.783Z,97710.36
2019-01-28T17:44:21.214Z,97725.69
2019-01-28T17:46:51.698Z,97727.49
2019-01-28T17:49:23.494Z,97734.59
2019-01-28T17:51:53.921Z,97736.72
2019-01-28T17:54:24.442Z,97746.93
2019-01-28T17:56:54.923Z,97745.10
2019-01-28T17:59:25.731Z,97751.50
2019-01-28T18:01:56.232Z,97760.73
2019-01-28T18:04:26.670Z,97756.72
2019-01-28T18:06:58.214Z,97762.81
2019-01-28T18:09:29.055Z,97780.56
2019-01-28T18:12:00.843Z,97783.03
2019-01-28T18:14:31.264Z,97788.61
2019-01-28T18:17:01.744Z,97787.12
2019-01-28T18:19:32.994Z,97788.56
2019-01-28T18:22:03.419Z,97799.75
2019-01-28T18:24:33.893Z,97806.27
2019-01-28T18:27:05.251Z,97814.17
2019-01-28T18:29:35.675Z,97815.16
2019-01-28T18:32:06.360Z,97816.77
2019-01-28T18:34:39.434Z,97827.95
2019-01-28T18:37:11.795Z,97838.63
2019-01-28T18:39:42.307Z,97843.32
2019-01-28T18:42:12.768Z,97853.02
2019-01-28T18:44:45.573Z,97854.64
2019-01-28T18:47:16.072Z,97863.89
2019-01-28T18:49:46.623Z,97869.16
2019-01-28T18:52:17.439Z,97873.36
2019-01-28T18:54:48.054Z,97873.67
2019-01-28T18:57:18.503Z,97887.44
2019-01-28T18:59:49.382Z,97895.45
2019-01-28T19:02:19.874Z,97897.78
2019-01-28T19:04:50.337Z,97912.37
2019-01-28T19:07:39.311Z,97914.63
2019-01-28T19:10:36.991Z,97927.41
2019-01-28T19:13:12.695Z,97925.62
2019-01-28T19:16:07.903Z,97931.16
2019-01-28T19:18:47.651Z,97942.92
2019-01-28T19:21:27.831Z,97949.05
2019-01-28T19:24:00.239Z,97955.00
2019-01-28T19:26:30.680Z,97960.41
2019-01-28T19:29:02.233Z,97968.66
2019-01-28T19:31:33.855Z,97974.01
2019-01-28T19:34:04.803Z,97978.27
2019-01-28T19:36:35.239Z,97990.61
2019-01-28T19:39:08.743Z,97993.64
2019-01-28T19:41:40.799Z,97998.66
2019-01-28T19:44:11.296Z,98012.06
2019-01-28T19:46:42.159Z,98012.91
2019-01-28T19:49:12.925Z,98019.69
2019-01-28T19:51:43.347Z,98021.66
2019-01-28T19:54:14.039Z,98033.86
2019-01-28T19:56:44.607Z,98040.87
2019-01-28T19:59:15.351Z,98042.48
2019-01-28T20:01:45.832Z,98051.16
2019-01-28T20:04:16.266Z,98055.95
2019-01-28T20:06:46.747Z,98070.80
2019-01-28T20:09:19.227Z,98069.94
2019-01-28T20:11:49.660Z,98069.86
2019-01-28T20:14:22.258Z,98088.36
2019-01-28T20:16:55.637Z,98092.48
2019-01-28T20:19:27.019Z,98092.48
2019-01-28T20:21:57.457Z,98105.47
2019-01-28T20:24:27.906Z,98099.85
2019-01-28T20:26:58.376Z,98110.84
2019-01-28T20:29:29.461Z,98106.43
2019-01-28T20:31:59.926Z,98125.32
2019-01-28T20:34:30.383Z,98126.17
2019-01-28T20:37:01.072Z,98124.05
2019-01-28T20:39:31.787Z,98124.45
2019-01-28T20:42:02.198Z,98139.18
2019-01-28T20:44:32.720Z,98134.88
2019-01-28T20:47:03.547Z,98143.27
2019-01-28T20:49:34.043Z,98155.38
2019-01-28T20:52:05.007Z,98156.32
2019-01-28T20:54:37.458Z,98160.06
2019-01-28T20:57:07.930Z,98164.83
2019-01-28T20:59:38.350Z,98170.03
2019-01-28T21:02:08.856Z,98175.77
2019-01-28T21:04:39.647Z,98186.17
2019-01-28T21:07:10.147Z,98186.78
2019-01-28T21:09:40.623Z,98188.09
2019-01-28T21:12:11.829Z,98190.03
2019-01-28T21:14:44.330Z,98201.19
2019-01-28T21:17:15.199Z,98198.33
2019-01-28T21:19:45.592Z,98208.39
2019-01-28T21:22:16.353Z,98212.48
2019-01-28T21:24:46.775Z,98217.48
2019-01-28T21:30:49.298Z,98226.60
2019-01-28T21:33:20.505Z,98224.12
2019-01-28T21:36:08.564Z,98234.35
2019-01-28T21:38:45.696Z,98239.91
2019-01-28T21:41:16.151Z,98239.34
2019-01-28T21:43:46.597Z,98252.14
2019-01-28T21:46:18.145Z,98249.72
2019-01-28T21:48:49.622Z,98250.95
2019-01-28T21:51:20.502Z,98257.13
2019-01-28T21:53:50.942Z,98257.47
2019-01-28T21:56:21.696Z,98263.44
2019-01-28T21:58:52.536Z,98260.53
2019-01-28T22:01:23.260Z,98262.48
2019-01-28T22:03:54.222Z,98266.48
2019-01-28T22:06:24.662Z,98276.52
2019-01-28T22:08:55.502Z,98277.89
2019-01-28T22:11:28.057Z,98280.53
2019-01-28T22:13:58.414Z,98286.06
2019-01-28T22:16:28.897Z,98284.07
2019-01-28T22:18:59.701Z,98283.86
2019-01-28T22:21:30.137Z,98290.30
2019-01-28T22:24:00.591Z,98294.59
2019-01-28T22:26:31.352Z,98301.11
2019-01-28T22:29:02.168Z,98312.73
2019-01-28T22:31:32.596Z,98314.82
2019-01-28T22:34:03.019Z,98312.11
2019-01-28T22:36:33.913Z,98315.09
2019-01-28T22:39:06.037Z,98315.91
2019-01-28T22:41:36.505Z,98317.37
2019-01-28T22:44:07.034Z,98318.27
2019-01-28T22:46:37.467Z,98326.10
2019-01-28T22:49:07.920Z,98322.09
2019-01-28T22:51:38.753Z,98329.77
2019-01-28T22:54:09.240Z,98328.53
2019-01-28T22:56:39.679Z,98334.20
2019-01-28T22:59:10.399Z,98336.47
2019-01-28T23:01:41.676Z,98334.05
2019-01-28T23:04:12.373Z,98336.27
2019-01-28T23:06:43.230Z,98343.19
2019-01-28T23:09:14.082Z,98340.81
2019-01-28T23:11:44.516Z,98345.54
2019-01-28T23:14:15.460Z,98346.00
2019-01-28T23:16:46.604Z,98353.82
2019-01-28T23:19:17.480Z,98358.05
2019-01-28T23:21:47.912Z,98357.83
2019-01-28T23:24:18.345Z,98362.06
2019-01-28T23:26:48.794Z,98375.22
2019-01-28T23:29:19.220Z,98376.97
2019-01-28T23:31:50.060Z,98369.86
2019-01-28T23:34:20.494Z,98370.11
2019-01-28T23:36:50.922Z,98370.74
2019-01-28T23:39:21.376Z,98371.27
2019-01-28T23:41:51.808Z,98377.92
2019-01-28T23:44:22.660Z,98390.50
2019-01-28T23:46:53.156Z,98398.11
2019-01-28T23:49:24.527Z,98393.91
2019-01-28T23:51:54.992Z,98396.54
2019-01-28T23:54:25.436Z,98396.27
2019-01-28T23:56:55.898Z,98405.83
2019-01-28T23:59:26.689Z,98404.16
